sensor_id;sensor_type;location;lat;lon;timestamp;temperature;humidity
2913;DHT22;1466;48.778;9.166;2024-01-07T00:01:15;7.60;99.90
2913;DHT22;1466;48.778;9.166;2024-01-07T00:03:41;7.50;99.90
2913;DHT22;1466;48.778;9.166;2024-01-07T00:06:08;7.40;99.90
2913;DHT22;1466;48.778;9.166;2024-01-07T00:08:34;7.40;99.90
2913;DHT22;1466;48.778;9.166;2024-01-07T00:11:00;7.40;99.90
2913;DHT22;1466;48.778;9.166;2024-01-07T00:13:25;7.40;99.90
2913;DHT22;1466;48.778;9.166;2024-01-07T00:15:51;7.40;99.90
2913;DHT22;1466;48.778;9.166;2024-01-07T00:18:19;7.40;99.90
2913;DHT22;1466;48.778;9.166;2024-01-07T00:20:45;7.30;99.90
2913;DHT22;1466;48.778;9.166;2024-01-07T00:23:10;7.40;99.90
2913;DHT22;1466;48.778;9.166;2024-01-07T00:25:36;7.40;99.90
2913;DHT22;1466;48.778;9.166;2024-01-07T00:28:01;7.40;99.90
2913;DHT22;1466;48.778;9.166;2024-01-07T00:30:27;7.40;99.90
2913;DHT22;1466;48.778;9.166;2024-01-07T00:32:53;7.40;99.90
2913;DHT22;1466;48.778;9.166;2024-01-07T00:35:18;7.50;99.90
2913;DHT22;1466;48.778;9.166;2024-01-07T00:37:44;7.60;99.90
2913;DHT22;1466;48.778;9.166;2024-01-07T00:40:10;7.50;99.90
2913;DHT22;1466;48.778;9.166;2024-01-07T00:42:36;7.50;99.90
2913;DHT22;1466;48.778;9.166;2024-01-07T00:45:01;7.40;99.90
2913;DHT22;1466;48.778;9.166;2024-01-07T00:47:27;7.40;99.90
2913;DHT22;1466;48.778;9.166;2024-01-07T00:49:52;7.50;99.90
2913;DHT22;1466;48.778;9.166;2024-01-07T00:52:18;7.50;99.90
2913;DHT22;1466;48.778;9.166;2024-01-07T00:54:43;7.40;99.90
2913;DHT22;1466;48.778;9.166;2024-01-07T00:57:10;7.40;99.90
2913;DHT22;1466;48.778;9.166;2024-01-07T00:59:37;7.30;99.90
2913;DHT22;1466;48.778;9.166;2024-01-07T01:02:03;7.10;99.90
2913;DHT22;1466;48.778;9.166;2024-01-07T01:04:29;7.10;99.90
2913;DHT22;1466;48.778;9.166;2024-01-07T01:06:54;7.10;99.90
2913;DHT22;1466;48.778;9.166;2024-01-07T01:09:20;7.10;99.90
2913;DHT22;1466;48.778;9.166;2024-01-07T01:11:46;7.00;99.90
2913;DHT22;1466;48.778;9.166;2024-01-07T01:14:11;7.00;99.90
2913;DHT22;1466;48.778;9.166;2024-01-07T01:16:37;7.00;99.90
2913;DHT22;1466;48.778;9.166;2024-01-07T01:19:02;7.10;99.90
2913;DHT22;1466;48.778;9.166;2024-01-07T01:21:28;7.20;99.90
2913;DHT22;1466;48.778;9.166;2024-01-07T01:23:54;7.20;99.90
2913;DHT22;1466;48.778;9.166;2024-01-07T01:26:20;7.20;99.90
2913;DHT22;1466;48.778;9.166;2024-01-07T01:28:45;7.10;99.90
2913;DHT22;1466;48.778;9.166;2024-01-07T01:31:14;7.10;99.90
2913;DHT22;1466;48.778;9.166;2024-01-07T01:33:40;7.20;99.90
2913;DHT22;1466;48.778;9.166;2024-01-07T01:36:06;7.30;99.90
2913;DHT22;1466;48.778;9.166;2024-01-07T01:38:32;7.40;99.90
2913;DHT22;1466;48.778;9.166;2024-01-07T01:40:58;7.30;99.90
2913;DHT22;1466;48.778;9.166;2024-01-07T01:43:24;7.20;99.90
2913;DHT22;1466;48.778;9.166;2024-01-07T01:45:51;7.10;99.90
2913;DHT22;1466;48.778;9.166;2024-01-07T01:48:17;7.00;99.90
2913;DHT22;1466;48.778;9.166;2024-01-07T01:50:42;6.90;99.90
2913;DHT22;1466;48.778;9.166;2024-01-07T01:53:08;7.00;99.90
2913;DHT22;1466;48.778;9.166;2024-01-07T01:55:34;6.90;99.90
2913;DHT22;1466;48.778;9.166;2024-01-07T01:58:01;6.90;99.90
2913;DHT22;1466;48.778;9.166;2024-01-07T02:00:29;6.90;99.90
2913;DHT22;1466;48.778;9.166;2024-01-07T02:02:55;7.00;99.90
2913;DHT22;1466;48.778;9.166;2024-01-07T02:05:21;7.00;99.90
2913;DHT22;1466;48.778;9.166;2024-01-07T02:07:47;7.00;99.90
2913;DHT22;1466;48.778;9.166;2024-01-07T02:10:13;7.00;99.90
2913;DHT22;1466;48.778;9.166;2024-01-07T02:12:38;7.00;99.90
2913;DHT22;1466;48.778;9.166;2024-01-07T02:15:04;7.10;99.90
2913;DHT22;1466;48.778;9.166;2024-01-07T02:17:30;7.10;99.90
2913;DHT22;1466;48.778;9.166;2024-01-07T02:19:56;6.90;99.90
2913;DHT22;1466;48.778;9.166;2024-01-07T02:22:22;6.90;99.90
2913;DHT22;1466;48.778;9.166;2024-01-07T02:24:47;6.90;99.90
2913;DHT22;1466;48.778;9.166;2024-01-07T02:27:13;6.80;99.90
2913;DHT22;1466;48.778;9.166;2024-01-07T02:29:39;6.80;99.90
2913;DHT22;1466;48.778;9.166;2024-01-07T02:32:05;6.80;99.90
2913;DHT22;1466;48.778;9.166;2024-01-07T02:34:30;6.70;99.90
2913;DHT22;1466;48.778;9.166;2024-01-07T02:36:56;6.80;99.90
2913;DHT22;1466;48.778;9.166;2024-01-07T02:39:21;6.70;99.90
2913;DHT22;1466;48.778;9.166;2024-01-07T02:41:48;6.80;99.90
2913;DHT22;1466;48.778;9.166;2024-01-07T02:44:14;6.90;99.90
2913;DHT22;1466;48.778;9.166;2024-01-07T02:46:39;7.00;99.90
2913;DHT22;1466;48.778;9.166;2024-01-07T02:49:05;7.00;99.90
2913;DHT22;1466;48.778;9.166;2024-01-07T02:51:30;7.00;99.90
2913;DHT22;1466;48.778;9.166;2024-01-07T02:53:56;7.10;99.90
2913;DHT22;1466;48.778;9.166;2024-01-07T02:56:22;7.10;99.90
2913;DHT22;1466;48.778;9.166;2024-01-07T02:58:47;7.10;99.90
2913;DHT22;1466;48.778;9.166;2024-01-07T03:01:13;7.20;99.90
2913;DHT22;1466;48.778;9.166;2024-01-07T03:03:39;7.10;99.90
2913;DHT22;1466;48.778;9.166;2024-01-07T03:06:04;7.10;99.90
2913;DHT22;1466;48.778;9.166;2024-01-07T03:08:31;7.00;99.90
2913;DHT22;1466;48.778;9.166;2024-01-07T03:10:56;7.00;99.90
2913;DHT22;1466;48.778;9.166;2024-01-07T03:13:22;6.90;99.90
2913;DHT22;1466;48.778;9.166;2024-01-07T03:15:47;6.80;99.90
2913;DHT22;1466;48.778;9.166;2024-01-07T03:18:13;7.00;99.90
2913;DHT22;1466;48.778;9.166;2024-01-07T03:20:38;7.00;99.90
2913;DHT22;1466;48.778;9.166;2024-01-07T03:23:04;7.10;99.90
2913;DHT22;1466;48.778;9.166;2024-01-07T03:25:30;7.20;99.90
2913;DHT22;1466;48.778;9.166;2024-01-07T03:27:55;7.20;99.90
2913;DHT22;1466;48.778;9.166;2024-01-07T03:30:21;7.20;99.90
2913;DHT22;1466;48.778;9.166;2024-01-07T03:32:47;7.20;99.90
2913;DHT22;1466;48.778;9.166;2024-01-07T03:35:12;7.10;99.90
2913;DHT22;1466;48.778;9.166;2024-01-07T03:37:38;7.10;99.90
2913;DHT22;1466;48.778;9.166;2024-01-07T03:40:08;6.90;99.90
2913;DHT22;1466;48.778;9.166;2024-01-07T03:42:34;6.90;99.90
2913;DHT22;1466;48.778;9.166;2024-01-07T03:45:00;6.90;99.90
2913;DHT22;1466;48.778;9.166;2024-01-07T03:47:25;6.80;99.90
2913;DHT22;1466;48.778;9.166;2024-01-07T03:49:51;6.80;99.90
2913;DHT22;1466;48.778;9.166;2024-01-07T03:52:16;6.90;99.90
2913;DHT22;1466;48.778;9.166;2024-01-07T03:54:42;7.00;99.90
2913;DHT22;1466;48.778;9.166;2024-01-07T03:57:08;7.10;99.90
2913;DHT22;1466;48.778;9.166;2024-01-07T03:59:33;7.10;99.90
2913;DHT22;1466;48.778;9.166;2024-01-07T04:01:59;7.00;99.90
2913;DHT22;1466;48.778;9.166;2024-01-07T04:04:24;6.80;99.90
2913;DHT22;1466;48.778;9.166;2024-01-07T04:06:50;6.90;99.90
2913;DHT22;1466;48.778;9.166;2024-01-07T04:09:15;6.80;99.90
2913;DHT22;1466;48.778;9.166;2024-01-07T04:11:42;6.90;99.90
2913;DHT22;1466;48.778;9.166;2024-01-07T04:14:08;6.90;99.90
2913;DHT22;1466;48.778;9.166;2024-01-07T04:16:34;6.80;99.90
2913;DHT22;1466;48.778;9.166;2024-01-07T04:19:00;6.80;99.90
2913;DHT22;1466;48.778;9.166;2024-01-07T04:21:26;6.80;99.90
2913;DHT22;1466;48.778;9.166;2024-01-07T04:23:51;6.80;99.90
2913;DHT22;1466;48.778;9.166;2024-01-07T04:26:17;6.90;99.90
2913;DHT22;1466;48.778;9.166;2024-01-07T04:28:43;6.70;99.90
2913;DHT22;1466;48.778;9.166;2024-01-07T04:31:09;6.70;99.90
2913;DHT22;1466;48.778;9.166;2024-01-07T04:33:35;6.80;99.90
2913;DHT22;1466;48.778;9.166;2024-01-07T04:36:00;6.60;99.90
2913;DHT22;1466;48.778;9.166;2024-01-07T04:38:26;6.70;99.90
2913;DHT22;1466;48.778;9.166;2024-01-07T04:40:52;6.70;99.90
2913;DHT22;1466;48.778;9.166;2024-01-07T04:43:19;6.70;99.90
2913;DHT22;1466;48.778;9.166;2024-01-07T04:45:44;6.70;99.90
2913;DHT22;1466;48.778;9.166;2024-01-07T04:48:10;6.70;99.90
2913;DHT22;1466;48.778;9.166;2024-01-07T04:50:36;6.60;99.90
2913;DHT22;1466;48.778;9.166;2024-01-07T04:53:02;6.70;99.90
2913;DHT22;1466;48.778;9.166;2024-01-07T04:55:29;6.70;99.90
2913;DHT22;1466;48.778;9.166;2024-01-07T04:57:55;6.70;99.90
2913;DHT22;1466;48.778;9.166;2024-01-07T05:00:20;6.70;99.90
2913;DHT22;1466;48.778;9.166;2024-01-07T05:02:46;6.80;99.90
2913;DHT22;1466;48.778;9.166;2024-01-07T05:05:12;6.80;99.90
2913;DHT22;1466;48.778;9.166;2024-01-07T05:07:37;6.70;99.90
2913;DHT22;1466;48.778;9.166;2024-01-07T05:10:04;6.60;99.90
2913;DHT22;1466;48.778;9.166;2024-01-07T05:12:29;6.60;99.90
2913;DHT22;1466;48.778;9.166;2024-01-07T05:14:55;6.70;99.90
2913;DHT22;1466;48.778;9.166;2024-01-07T05:17:20;6.70;99.90
2913;DHT22;1466;48.778;9.166;2024-01-07T05:19:46;6.60;99.90
2913;DHT22;1466;48.778;9.166;2024-01-07T05:22:12;6.40;99.90
2913;DHT22;1466;48.778;9.166;2024-01-07T05:24:37;6.50;99.90
2913;DHT22;1466;48.778;9.166;2024-01-07T05:27:06;6.50;99.90
2913;DHT22;1466;48.778;9.166;2024-01-07T05:29:32;6.60;99.90
2913;DHT22;1466;48.778;9.166;2024-01-07T05:32:01;6.50;99.90
2913;DHT22;1466;48.778;9.166;2024-01-07T05:34:28;6.50;99.90
2913;DHT22;1466;48.778;9.166;2024-01-07T05:36:54;6.50;99.90
2913;DHT22;1466;48.778;9.166;2024-01-07T05:39:19;6.50;99.90
2913;DHT22;1466;48.778;9.166;2024-01-07T05:41:45;6.60;99.90
2913;DHT22;1466;48.778;9.166;2024-01-07T05:44:11;6.60;99.90
2913;DHT22;1466;48.778;9.166;2024-01-07T05:46:40;6.60;99.90
2913;DHT22;1466;48.778;9.166;2024-01-07T05:49:08;6.60;99.90
2913;DHT22;1466;48.778;9.166;2024-01-07T05:51:33;6.70;99.90
2913;DHT22;1466;48.778;9.166;2024-01-07T05:53:59;6.60;99.90
2913;DHT22;1466;48.778;9.166;2024-01-07T05:56:25;6.60;99.90
2913;DHT22;1466;48.778;9.166;2024-01-07T05:58:51;6.60;99.90
2913;DHT22;1466;48.778;9.166;2024-01-07T06:01:20;6.70;99.90
2913;DHT22;1466;48.778;9.166;2024-01-07T06:03:46;6.70;99.90
2913;DHT22;1466;48.778;9.166;2024-01-07T06:06:14;6.60;99.90
2913;DHT22;1466;48.778;9.166;2024-01-07T06:08:43;6.50;99.90
2913;DHT22;1466;48.778;9.166;2024-01-07T06:11:09;6.50;99.90
2913;DHT22;1466;48.778;9.166;2024-01-07T06:13:37;6.50;99.90
2913;DHT22;1466;48.778;9.166;2024-01-07T06:16:03;6.40;99.90
2913;DHT22;1466;48.778;9.166;2024-01-07T06:18:28;6.30;99.90
2913;DHT22;1466;48.778;9.166;2024-01-07T06:20:54;6.20;99.90
2913;DHT22;1466;48.778;9.166;2024-01-07T06:23:19;6.20;99.90
2913;DHT22;1466;48.778;9.166;2024-01-07T06:25:45;6.30;99.90
2913;DHT22;1466;48.778;9.166;2024-01-07T06:28:11;6.30;99.90
2913;DHT22;1466;48.778;9.166;2024-01-07T06:30:36;6.40;99.90
2913;DHT22;1466;48.778;9.166;2024-01-07T06:33:02;6.30;99.90
2913;DHT22;1466;48.778;9.166;2024-01-07T06:35:28;6.40;99.90
2913;DHT22;1466;48.778;9.166;2024-01-07T06:37:53;6.30;99.90
2913;DHT22;1466;48.778;9.166;2024-01-07T06:40:19;6.40;99.90
2913;DHT22;1466;48.778;9.166;2024-01-07T06:42:45;6.30;99.90
2913;DHT22;1466;48.778;9.166;2024-01-07T06:45:13;6.30;99.90
2913;DHT22;1466;48.778;9.166;2024-01-07T06:47:40;6.30;99.90
2913;DHT22;1466;48.778;9.166;2024-01-07T06:50:06;6.30;99.90
2913;DHT22;1466;48.778;9.166;2024-01-07T06:52:31;6.40;99.90
2913;DHT22;1466;48.778;9.166;2024-01-07T06:54:57;6.40;99.90
2913;DHT22;1466;48.778;9.166;2024-01-07T06:57:23;6.40;99.90
2913;DHT22;1466;48.778;9.166;2024-01-07T06:59:48;6.50;99.90
2913;DHT22;1466;48.778;9.166;2024-01-07T07:02:14;6.40;99.90
2913;DHT22;1466;48.778;9.166;2024-01-07T07:04:39;6.40;99.90
2913;DHT22;1466;48.778;9.166;2024-01-07T07:07:05;6.40;99.90
2913;DHT22;1466;48.778;9.166;2024-01-07T07:09:31;6.40;99.90
2913;DHT22;1466;48.778;9.166;2024-01-07T07:11:56;6.40;99.90
2913;DHT22;1466;48.778;9.166;2024-01-07T07:14:22;6.30;99.90
2913;DHT22;1466;48.778;9.166;2024-01-07T07:16:47;6.20;99.90
2913;DHT22;1466;48.778;9.166;2024-01-07T07:19:13;6.20;99.90
2913;DHT22;1466;48.778;9.166;2024-01-07T07:21:40;6.20;99.90
2913;DHT22;1466;48.778;9.166;2024-01-07T07:24:06;6.20;99.90
2913;DHT22;1466;48.778;9.166;2024-01-07T07:26:32;6.10;99.90
2913;DHT22;1466;48.778;9.166;2024-01-07T07:28:58;6.10;99.90
2913;DHT22;1466;48.778;9.166;2024-01-07T07:31:25;6.00;99.90
2913;DHT22;1466;48.778;9.166;2024-01-07T07:33:51;6.10;99.90
2913;DHT22;1466;48.778;9.166;2024-01-07T07:36:17;6.10;99.90
2913;DHT22;1466;48.778;9.166;2024-01-07T07:38:43;6.10;99.90
2913;DHT22;1466;48.778;9.166;2024-01-07T07:41:08;6.10;99.90
2913;DHT22;1466;48.778;9.166;2024-01-07T07:43:34;6.10;99.90
2913;DHT22;1466;48.778;9.166;2024-01-07T07:45:59;6.10;99.90
2913;DHT22;1466;48.778;9.166;2024-01-07T07:48:28;6.10;99.90
2913;DHT22;1466;48.778;9.166;2024-01-07T07:50:53;6.00;99.90
2913;DHT22;1466;48.778;9.166;2024-01-07T07:53:19;6.00;99.90
2913;DHT22;1466;48.778;9.166;2024-01-07T07:55:44;6.00;99.90
2913;DHT22;1466;48.778;9.166;2024-01-07T07:58:10;6.10;99.90
2913;DHT22;1466;48.778;9.166;2024-01-07T08:00:36;6.00;99.90
2913;DHT22;1466;48.778;9.166;2024-01-07T08:03:02;5.90;99.90
2913;DHT22;1466;48.778;9.166;2024-01-07T08:05:28;5.80;99.90
2913;DHT22;1466;48.778;9.166;2024-01-07T08:07:54;5.80;99.90
2913;DHT22;1466;48.778;9.166;2024-01-07T08:10:20;5.80;99.90
2913;DHT22;1466;48.778;9.166;2024-01-07T08:12:48;5.80;99.90
2913;DHT22;1466;48.778;9.166;2024-01-07T08:15:14;5.70;99.90
2913;DHT22;1466;48.778;9.166;2024-01-07T08:17:40;5.80;99.90
2913;DHT22;1466;48.778;9.166;2024-01-07T08:20:06;5.80;99.90
2913;DHT22;1466;48.778;9.166;2024-01-07T08:22:32;5.70;99.90
2913;DHT22;1466;48.778;9.166;2024-01-07T08:24:57;5.70;99.90
2913;DHT22;1466;48.778;9.166;2024-01-07T08:27:23;5.70;99.90
2913;DHT22;1466;48.778;9.166;2024-01-07T08:29:49;5.70;99.90
2913;DHT22;1466;48.778;9.166;2024-01-07T08:32:14;5.60;99.90
2913;DHT22;1466;48.778;9.166;2024-01-07T08:34:40;5.70;99.90
2913;DHT22;1466;48.778;9.166;2024-01-07T08:37:07;5.70;99.90
2913;DHT22;1466;48.778;9.166;2024-01-07T08:39:33;5.70;99.90
2913;DHT22;1466;48.778;9.166;2024-01-07T08:41:59;5.60;99.90
2913;DHT22;1466;48.778;9.166;2024-01-07T08:44:25;5.50;99.90
2913;DHT22;1466;48.778;9.166;2024-01-07T08:46:50;5.60;99.90
2913;DHT22;1466;48.778;9.166;2024-01-07T08:49:16;5.60;99.90
2913;DHT22;1466;48.778;9.166;2024-01-07T08:51:41;5.70;99.90
2913;DHT22;1466;48.778;9.166;2024-01-07T08:54:07;5.70;99.90
2913;DHT22;1466;48.778;9.166;2024-01-07T08:56:33;5.90;99.90
2913;DHT22;1466;48.778;9.166;2024-01-07T08:58:59;5.90;99.90
2913;DHT22;1466;48.778;9.166;2024-01-07T09:01:25;5.90;99.90
2913;DHT22;1466;48.778;9.166;2024-01-07T09:03:50;6.00;99.90
2913;DHT22;1466;48.778;9.166;2024-01-07T09:06:16;5.90;99.90
2913;DHT22;1466;48.778;9.166;2024-01-07T09:08:41;5.90;99.90
2913;DHT22;1466;48.778;9.166;2024-01-07T09:11:08;5.80;99.90
2913;DHT22;1466;48.778;9.166;2024-01-07T09:13:37;5.90;99.90
2913;DHT22;1466;48.778;9.166;2024-01-07T09:16:03;5.90;99.90
2913;DHT22;1466;48.778;9.166;2024-01-07T09:18:28;5.90;99.90
2913;DHT22;1466;48.778;9.166;2024-01-07T09:20:54;6.00;99.90
2913;DHT22;1466;48.778;9.166;2024-01-07T09:23:20;6.00;99.90
2913;DHT22;1466;48.778;9.166;2024-01-07T09:25:45;6.00;99.90
2913;DHT22;1466;48.778;9.166;2024-01-07T09:28:11;6.00;99.90
2913;DHT22;1466;48.778;9.166;2024-01-07T09:30:38;6.00;99.90
2913;DHT22;1466;48.778;9.166;2024-01-07T09:33:04;5.90;99.90
2913;DHT22;1466;48.778;9.166;2024-01-07T09:35:30;6.00;99.90
2913;DHT22;1466;48.778;9.166;2024-01-07T09:37:56;6.00;99.90
2913;DHT22;1466;48.778;9.166;2024-01-07T09:40:22;5.90;99.90
2913;DHT22;1466;48.778;9.166;2024-01-07T09:42:47;6.00;99.90
2913;DHT22;1466;48.778;9.166;2024-01-07T09:45:14;6.00;99.90
2913;DHT22;1466;48.778;9.166;2024-01-07T09:47:40;6.20;99.90
2913;DHT22;1466;48.778;9.166;2024-01-07T09:50:07;6.10;99.90
2913;DHT22;1466;48.778;9.166;2024-01-07T09:52:35;6.10;99.90
2913;DHT22;1466;48.778;9.166;2024-01-07T09:55:02;6.10;99.90
2913;DHT22;1466;48.778;9.166;2024-01-07T09:57:29;6.20;99.90
2913;DHT22;1466;48.778;9.166;2024-01-07T09:59:55;6.30;99.90
2913;DHT22;1466;48.778;9.166;2024-01-07T10:02:21;6.30;99.90
2913;DHT22;1466;48.778;9.166;2024-01-07T10:04:49;6.30;99.90
2913;DHT22;1466;48.778;9.166;2024-01-07T10:07:15;6.30;99.90
2913;DHT22;1466;48.778;9.166;2024-01-07T10:09:41;6.30;99.90
2913;DHT22;1466;48.778;9.166;2024-01-07T10:12:10;6.30;99.90
2913;DHT22;1466;48.778;9.166;2024-01-07T10:14:38;6.30;99.90
2913;DHT22;1466;48.778;9.166;2024-01-07T10:17:15;6.30;99.90
2913;DHT22;1466;48.778;9.166;2024-01-07T10:19:45;6.30;99.90
2913;DHT22;1466;48.778;9.166;2024-01-07T10:22:12;6.30;99.90
2913;DHT22;1466;48.778;9.166;2024-01-07T10:24:42;6.20;99.90
2913;DHT22;1466;48.778;9.166;2024-01-07T10:27:09;6.20;99.90
2913;DHT22;1466;48.778;9.166;2024-01-07T10:29:36;6.10;99.90
2913;DHT22;1466;48.778;9.166;2024-01-07T10:32:02;6.10;99.90
2913;DHT22;1466;48.778;9.166;2024-01-07T10:34:34;6.00;99.90
2913;DHT22;1466;48.778;9.166;2024-01-07T10:37:01;5.90;99.90
2913;DHT22;1466;48.778;9.166;2024-01-07T10:39:27;5.90;99.90
2913;DHT22;1466;48.778;9.166;2024-01-07T10:41:55;5.80;99.90
2913;DHT22;1466;48.778;9.166;2024-01-07T10:44:30;5.70;99.90
2913;DHT22;1466;48.778;9.166;2024-01-07T10:46:56;5.60;99.90
2913;DHT22;1466;48.778;9.166;2024-01-07T10:49:24;5.50;99.90
2913;DHT22;1466;48.778;9.166;2024-01-07T10:52:03;5.50;99.90
2913;DHT22;1466;48.778;9.166;2024-01-07T10:54:30;5.60;99.90
2913;DHT22;1466;48.778;9.166;2024-01-07T10:57:03;5.60;99.90
2913;DHT22;1466;48.778;9.166;2024-01-07T10:59:32;5.70;99.90
2913;DHT22;1466;48.778;9.166;2024-01-07T11:01:59;5.60;99.90
2913;DHT22;1466;48.778;9.166;2024-01-07T11:07:15;5.70;99.90
2913;DHT22;1466;48.778;9.166;2024-01-07T11:10:12;5.70;99.90
2913;DHT22;1466;48.778;9.166;2024-01-07T11:12:39;5.70;99.90
2913;DHT22;1466;48.778;9.166;2024-01-07T11:15:04;5.70;99.90
2913;DHT22;1466;48.778;9.166;2024-01-07T11:17:40;5.60;99.90
2913;DHT22;1466;48.778;9.166;2024-01-07T11:20:12;5.50;99.90
2913;DHT22;1466;48.778;9.166;2024-01-07T11:22:37;5.50;99.90
2913;DHT22;1466;48.778;9.166;2024-01-07T11:25:30;5.60;99.90
2913;DHT22;1466;48.778;9.166;2024-01-07T11:28:01;5.50;99.90
2913;DHT22;1466;48.778;9.166;2024-01-07T11:30:27;5.60;99.90
2913;DHT22;1466;48.778;9.166;2024-01-07T11:32:59;5.70;99.90
2913;DHT22;1466;48.778;9.166;2024-01-07T11:35:56;5.80;99.90
2913;DHT22;1466;48.778;9.166;2024-01-07T11:38:23;5.90;99.90
2913;DHT22;1466;48.778;9.166;2024-01-07T11:40:49;5.80;99.90
2913;DHT22;1466;48.778;9.166;2024-01-07T11:43:15;5.70;99.90
2913;DHT22;1466;48.778;9.166;2024-01-07T11:45:41;5.70;99.90
2913;DHT22;1466;48.778;9.166;2024-01-07T11:48:07;5.70;99.90
2913;DHT22;1466;48.778;9.166;2024-01-07T11:50:32;5.50;99.90
2913;DHT22;1466;48.778;9.166;2024-01-07T11:52:58;5.40;99.90
2913;DHT22;1466;48.778;9.166;2024-01-07T11:55:25;5.40;99.90
2913;DHT22;1466;48.778;9.166;2024-01-07T11:57:51;5.30;99.90
2913;DHT22;1466;48.778;9.166;2024-01-07T12:00:17;5.30;99.90
2913;DHT22;1466;48.778;9.166;2024-01-07T12:02:43;5.30;99.90
2913;DHT22;1466;48.778;9.166;2024-01-07T12:05:09;5.30;99.90
2913;DHT22;1466;48.778;9.166;2024-01-07T12:07:36;5.20;99.90
2913;DHT22;1466;48.778;9.166;2024-01-07T12:10:02;5.30;99.90
2913;DHT22;1466;48.778;9.166;2024-01-07T12:12:31;5.30;99.90
2913;DHT22;1466;48.778;9.166;2024-01-07T12:14:57;5.20;99.90
2913;DHT22;1466;48.778;9.166;2024-01-07T12:17:23;5.20;99.90
2913;DHT22;1466;48.778;9.166;2024-01-07T12:19:49;5.20;99.90
2913;DHT22;1466;48.778;9.166;2024-01-07T12:22:17;5.10;99.90
2913;DHT22;1466;48.778;9.166;2024-01-07T12:24:43;5.20;99.90
2913;DHT22;1466;48.778;9.166;2024-01-07T12:27:09;5.10;99.90
2913;DHT22;1466;48.778;9.166;2024-01-07T12:29:35;5.10;99.90
2913;DHT22;1466;48.778;9.166;2024-01-07T12:32:00;5.10;99.90
2913;DHT22;1466;48.778;9.166;2024-01-07T12:34:28;5.10;99.90
2913;DHT22;1466;48.778;9.166;2024-01-07T12:36:57;5.10;99.90
2913;DHT22;1466;48.778;9.166;2024-01-07T12:39:24;5.20;99.90
2913;DHT22;1466;48.778;9.166;2024-01-07T12:41:50;5.20;99.90
2913;DHT22;1466;48.778;9.166;2024-01-07T12:44:19;5.10;99.90
2913;DHT22;1466;48.778;9.166;2024-01-07T12:46:45;5.10;99.90
2913;DHT22;1466;48.778;9.166;2024-01-07T12:49:16;5.10;99.90
2913;DHT22;1466;48.778;9.166;2024-01-07T12:54:24;5.00;99.90
2913;DHT22;1466;48.778;9.166;2024-01-07T12:56:50;5.00;99.90
2913;DHT22;1466;48.778;9.166;2024-01-07T12:59:16;5.00;99.90
2913;DHT22;1466;48.778;9.166;2024-01-07T13:01:42;4.90;99.90
2913;DHT22;1466;48.778;9.166;2024-01-07T13:04:08;4.90;99.90
2913;DHT22;1466;48.778;9.166;2024-01-07T13:06:37;4.90;99.90
2913;DHT22;1466;48.778;9.166;2024-01-07T13:09:03;4.80;99.90
2913;DHT22;1466;48.778;9.166;2024-01-07T13:11:31;4.80;99.90
2913;DHT22;1466;48.778;9.166;2024-01-07T13:13:57;4.80;99.90
2913;DHT22;1466;48.778;9.166;2024-01-07T13:16:29;4.80;99.90
2913;DHT22;1466;48.778;9.166;2024-01-07T13:18:58;4.70;99.90
2913;DHT22;1466;48.778;9.166;2024-01-07T13:21:23;4.60;99.90
2913;DHT22;1466;48.778;9.166;2024-01-07T13:23:49;4.60;99.90
2913;DHT22;1466;48.778;9.166;2024-01-07T13:26:15;4.60;99.90
2913;DHT22;1466;48.778;9.166;2024-01-07T13:28:41;4.60;99.90
2913;DHT22;1466;48.778;9.166;2024-01-07T13:31:08;4.60;99.90
2913;DHT22;1466;48.778;9.166;2024-01-07T13:33:33;4.60;99.90
2913;DHT22;1466;48.778;9.166;2024-01-07T13:35:59;4.50;99.90
2913;DHT22;1466;48.778;9.166;2024-01-07T13:38:25;4.60;99.90
2913;DHT22;1466;48.778;9.166;2024-01-07T13:40:51;4.50;99.90
2913;DHT22;1466;48.778;9.166;2024-01-07T13:43:17;4.50;99.90
2913;DHT22;1466;48.778;9.166;2024-01-07T13:45:42;4.40;99.90
2913;DHT22;1466;48.778;9.166;2024-01-07T13:48:11;4.40;99.90
2913;DHT22;1466;48.778;9.166;2024-01-07T13:50:37;4.30;99.90
2913;DHT22;1466;48.778;9.166;2024-01-07T13:53:03;4.20;99.90
2913;DHT22;1466;48.778;9.166;2024-01-07T13:55:29;4.20;99.90
2913;DHT22;1466;48.778;9.166;2024-01-07T13:57:55;4.10;99.90
2913;DHT22;1466;48.778;9.166;2024-01-07T14:00:21;4.10;99.90
2913;DHT22;1466;48.778;9.166;2024-01-07T14:02:47;4.10;99.90
2913;DHT22;1466;48.778;9.166;2024-01-07T14:05:12;4.10;99.90
2913;DHT22;1466;48.778;9.166;2024-01-07T14:07:39;4.00;99.90
2913;DHT22;1466;48.778;9.166;2024-01-07T14:10:06;4.10;99.90
2913;DHT22;1466;48.778;9.166;2024-01-07T14:12:32;4.10;99.90
2913;DHT22;1466;48.778;9.166;2024-01-07T14:14:58;4.10;99.90
2913;DHT22;1466;48.778;9.166;2024-01-07T14:17:24;4.10;99.90
2913;DHT22;1466;48.778;9.166;2024-01-07T14:19:50;4.00;99.90
2913;DHT22;1466;48.778;9.166;2024-01-07T14:22:19;4.00;99.90
2913;DHT22;1466;48.778;9.166;2024-01-07T14:24:44;4.00;99.90
2913;DHT22;1466;48.778;9.166;2024-01-07T14:27:10;3.90;99.90
2913;DHT22;1466;48.778;9.166;2024-01-07T14:29:36;3.90;99.90
2913;DHT22;1466;48.778;9.166;2024-01-07T14:32:04;4.00;99.90
2913;DHT22;1466;48.778;9.166;2024-01-07T14:34:30;4.10;99.90
2913;DHT22;1466;48.778;9.166;2024-01-07T14:36:55;4.10;99.90
2913;DHT22;1466;48.778;9.166;2024-01-07T14:39:21;4.00;99.90
2913;DHT22;1466;48.778;9.166;2024-01-07T14:41:47;4.00;99.90
2913;DHT22;1466;48.778;9.166;2024-01-07T14:44:12;3.90;99.90
2913;DHT22;1466;48.778;9.166;2024-01-07T14:46:38;3.90;99.90
2913;DHT22;1466;48.778;9.166;2024-01-07T14:49:04;3.80;99.90
2913;DHT22;1466;48.778;9.166;2024-01-07T14:51:29;3.70;99.90
2913;DHT22;1466;48.778;9.166;2024-01-07T14:53:57;3.70;99.90
2913;DHT22;1466;48.778;9.166;2024-01-07T14:56:22;3.70;99.90
2913;DHT22;1466;48.778;9.166;2024-01-07T14:58:48;3.70;99.90
2913;DHT22;1466;48.778;9.166;2024-01-07T15:01:14;3.70;99.90
2913;DHT22;1466;48.778;9.166;2024-01-07T15:03:40;3.70;99.90
2913;DHT22;1466;48.778;9.166;2024-01-07T15:06:06;3.80;99.90
2913;DHT22;1466;48.778;9.166;2024-01-07T15:08:33;3.80;99.90
2913;DHT22;1466;48.778;9.166;2024-01-07T15:10:59;3.80;99.90
2913;DHT22;1466;48.778;9.166;2024-01-07T15:13:24;3.80;99.90
2913;DHT22;1466;48.778;9.166;2024-01-07T15:15:52;3.90;99.90
2913;DHT22;1466;48.778;9.166;2024-01-07T15:18:17;3.80;99.90
2913;DHT22;1466;48.778;9.166;2024-01-07T15:20:43;3.70;99.90
2913;DHT22;1466;48.778;9.166;2024-01-07T15:23:09;3.60;99.90
2913;DHT22;1466;48.778;9.166;2024-01-07T15:25:34;3.60;99.90
2913;DHT22;1466;48.778;9.166;2024-01-07T15:28:00;3.50;99.90
2913;DHT22;1466;48.778;9.166;2024-01-07T15:30:26;3.40;99.90
2913;DHT22;1466;48.778;9.166;2024-01-07T15:32:51;3.40;99.90
2913;DHT22;1466;48.778;9.166;2024-01-07T15:35:17;3.30;99.90
2913;DHT22;1466;48.778;9.166;2024-01-07T15:37:43;3.30;99.90
2913;DHT22;1466;48.778;9.166;2024-01-07T15:40:09;3.30;99.90
2913;DHT22;1466;48.778;9.166;2024-01-07T15:42:34;3.30;99.90
2913;DHT22;1466;48.778;9.166;2024-01-07T15:45:00;3.20;99.90
2913;DHT22;1466;48.778;9.166;2024-01-07T15:47:26;3.20;99.90
2913;DHT22;1466;48.778;9.166;2024-01-07T15:49:52;3.20;99.90
2913;DHT22;1466;48.778;9.166;2024-01-07T15:52:21;3.30;99.90
2913;DHT22;1466;48.778;9.166;2024-01-07T15:54:47;3.20;99.90
2913;DHT22;1466;48.778;9.166;2024-01-07T15:57:13;3.10;99.90
2913;DHT22;1466;48.778;9.166;2024-01-07T15:59:42;3.10;99.90
2913;DHT22;1466;48.778;9.166;2024-01-07T16:02:07;3.10;99.90
2913;DHT22;1466;48.778;9.166;2024-01-07T16:04:33;3.10;99.90
2913;DHT22;1466;48.778;9.166;2024-01-07T16:06:58;3.10;99.90
2913;DHT22;1466;48.778;9.166;2024-01-07T16:09:25;3.00;99.90
2913;DHT22;1466;48.778;9.166;2024-01-07T16:11:51;3.10;99.90
2913;DHT22;1466;48.778;9.166;2024-01-07T16:14:17;3.20;99.90
2913;DHT22;1466;48.778;9.166;2024-01-07T16:16:50;3.20;99.90